Time;durP1;ratioP1;P1;durP2;ratioP2;P2;SDS_P1;SDS_P2;PMS_P1;PMS_P2;Temp;Humidity;BMP_temperature;BMP_pressure;BME280_temperature;BME280_humidity;BME280_pressure;Samples;Min_cycle;Max_cycle;Signal;HPM_P1;HPM_P2
2023/07/25 00:00:53;;;;;;;;;;;;;;;21.57;53.62;100220.97;4131399;28;19960;-55
2023/07/25 00:02:55;;;;;;;;;;;;;;;21.58;54.02;100230.69;4140944;28;19968;-54
2023/07/25 00:04:56;;;;;;;;;;;;;;;21.58;54.38;100225.34;4147656;28;19968;-53
2023/07/25 00:06:58;;;;;;;;;;;;;;;21.58;54.11;100236.03;4147730;28;19983;-53
2023/07/25 00:09:00;;;;;;;;;;;;;;;21.58;53.79;100230.69;4147338;28;19921;-55
2023/07/25 00:11:02;;;;;;;;;;;;;;;21.57;54.10;100230.78;4147743;28;19986;-55
2023/07/25 00:13:03;;;;;;;;;;;;;;;21.55;54.03;100229.06;4146877;28;19921;-53
2023/07/25 00:15:05;;;;;;;;;;;;;;;21.56;54.10;100221.91;4147730;28;19993;-55
2023/07/25 00:17:06;;;;;;;;;;;;;;;21.55;54.18;100214.84;4147702;28;19927;-53
2023/07/25 00:19:08;;;;;;;;;;;;;;;21.54;54.21;100214.03;4147389;28;20292;-53
2023/07/25 00:21:10;;;;;;;;;;;;;;;21.54;54.53;100219.38;4147400;28;19976;-52
2023/07/25 00:23:11;;;;;;;;;;;;;;;21.54;53.76;100216.69;4146368;28;19928;-53
2023/07/25 00:25:13;;;;;;;;;;;;;;;21.54;54.00;100219.38;4147575;28;19927;-53
2023/07/25 00:27:14;;;;;;;;;;;;;;;21.54;54.21;100229.22;4147591;28;20299;-51
2023/07/25 00:29:19;;;;;;;;;;;;;;;21.53;54.21;100222.16;4147312;28;19921;-52
2023/07/25 00:31:21;;;;;;;;;;;;;;;21.53;53.80;100231.06;4147774;28;20028;-54
2023/07/25 00:33:22;;;;;;;;;;;;;;;21.54;53.66;100231.88;4146898;28;20305;-53
2023/07/25 00:35:24;;;;;;;;;;;;;;;21.52;54.74;100221.34;4147328;28;19976;-53
2023/07/25 00:37:27;;;;;;;;;;;;;;;21.52;54.03;100217.81;4147021;28;20380;-53
2023/07/25 00:39:29;;;;;;;;;;;;;;;21.51;54.40;100222.31;4147287;28;19925;-53
2023/07/25 00:41:31;;;;;;;;;;;;;;;21.51;53.99;100218.81;4147384;28;19921;-52
2023/07/25 00:43:33;;;;;;;;;;;;;;;21.52;54.30;100217.81;4146615;28;19957;-52
2023/07/25 00:45:35;;;;;;;;;;;;;;;21.51;54.34;100226.84;4149533;28;19929;-53
2023/07/25 00:47:37;;;;;;;;;;;;;;;21.49;53.99;100218.91;4150304;28;19922;-53
2023/07/25 00:49:41;;;;;;;;;;;;;;;21.49;54.20;100216.25;4137625;28;19976;-53
2023/07/25 00:51:42;;;;;;;;;;;;;;;21.49;54.09;100216.25;4116761;28;20028;-51
2023/07/25 00:53:44;;;;;;;;;;;;;;;21.47;54.28;100204.84;4133168;28;19925;-52
2023/07/25 00:55:46;;;;;;;;;;;;;;;21.49;54.11;100199.34;4133979;28;20024;-54
2023/07/25 00:57:48;;;;;;;;;;;;;;;21.48;54.47;100203.88;4133693;28;19922;-53
2023/07/25 00:59:52;;;;;;;;;;;;;;;21.46;54.69;100197.81;4133757;28;19972;-53
2023/07/25 01:01:53;;;;;;;;;;;;;;;21.46;54.29;100192.47;4135169;28;19922;-55
2023/07/25 01:03:55;;;;;;;;;;;;;;;21.48;54.47;100195.00;4149931;28;19922;-51
2023/07/25 01:05:59;;;;;;;;;;;;;;;21.48;54.14;100189.63;4150065;28;20379;-53
2023/07/25 01:08:01;;;;;;;;;;;;;;;21.46;54.30;100196.94;4149569;28;19928;-50
2023/07/25 01:10:03;;;;;;;;;;;;;;;21.46;54.58;100197.81;4132518;28;20430;-52
2023/07/25 01:12:05;;;;;;;;;;;;;;;21.45;54.33;100196.13;4149410;28;19921;-53
2023/07/25 01:14:06;;;;;;;;;;;;;;;21.47;54.08;100196.84;4149613;28;19921;-53
2023/07/25 01:16:12;;;;;;;;;;;;;;;21.46;54.36;100188.91;4149830;28;19921;-53
2023/07/25 01:18:14;;;;;;;;;;;;;;;21.47;53.85;100194.16;4149702;28;19922;-53
2023/07/25 01:20:16;;;;;;;;;;;;;;;21.45;54.23;100190.75;4149823;28;19968;-53
2023/07/25 01:22:18;;;;;;;;;;;;;;;21.46;53.84;100186.25;4148895;28;19929;-54
2023/07/25 01:24:19;;;;;;;;;;;;;;;21.45;53.89;100182.75;4149626;28;19921;-52
2023/07/25 01:26:22;;;;;;;;;;;;;;;21.46;54.10;100188.91;4149615;28;20360;-53
2023/07/25 01:28:24;;;;;;;;;;;;;;;21.46;53.84;100181.75;4132162;28;20440;-53
2023/07/25 01:30:26;;;;;;;;;;;;;;;21.45;54.22;100176.56;4149761;28;20006;-54
2023/07/25 01:32:30;;;;;;;;;;;;;;;21.43;53.79;100173.16;4148874;28;20007;-52
2023/07/25 01:34:32;;;;;;;;;;;;;;;21.43;54.35;100171.31;4149388;28;20404;-53
2023/07/25 01:36:33;;;;;;;;;;;;;;;21.42;53.73;100174.97;4148958;28;19933;-54
2023/07/25 01:38:35;;;;;;;;;;;;;;;21.43;53.99;100173.16;4149560;28;20002;-54
2023/07/25 01:40:40;;;;;;;;;;;;;;;21.42;54.38;100168.78;4149599;28;20445;-53
2023/07/25 01:42:41;;;;;;;;;;;;;;;21.42;54.00;100169.63;4148773;28;19928;-54
2023/07/25 01:44:43;;;;;;;;;;;;;;;21.42;54.49;100174.97;4149402;28;19925;-52
2023/07/25 01:46:45;;;;;;;;;;;;;;;21.43;53.77;100178.50;4149316;28;19956;-50
2023/07/25 01:48:46;;;;;;;;;;;;;;;21.42;53.77;100182.16;4143889;28;20337;-54
2023/07/25 01:50:48;;;;;;;;;;;;;;;21.41;54.13;100184.00;4132739;28;19928;-54
2023/07/25 01:52:49;;;;;;;;;;;;;;;21.41;53.97;100186.69;4132533;28;20395;-54
2023/07/25 01:54:52;;;;;;;;;;;;;;;21.41;53.99;100185.81;4132913;28;19922;-51
2023/07/25 01:56:53;;;;;;;;;;;;;;;21.41;54.20;100183.16;4132244;28;20049;-52
2023/07/25 01:58:55;;;;;;;;;;;;;;;21.40;54.57;100185.00;4132804;28;19922;-52
2023/07/25 02:00:59;;;;;;;;;;;;;;;21.40;54.12;100185.00;4115885;28;19929;-53
2023/07/25 02:03:01;;;;;;;;;;;;;;;21.39;54.19;100186.81;4142989;28;19929;-54
2023/07/25 02:05:03;;;;;;;;;;;;;;;21.39;54.56;100178.78;4148657;28;20348;-50
2023/07/25 02:07:05;;;;;;;;;;;;;;;21.38;54.52;100171.72;4149007;28;19921;-52
2023/07/25 02:09:06;;;;;;;;;;;;;;;21.39;54.38;100169.91;4148877;28;20012;-53
2023/07/25 02:11:08;;;;;;;;;;;;;;;21.38;54.33;100173.56;4148996;28;20023;-54
2023/07/25 02:13:10;;;;;;;;;;;;;;;21.38;54.01;100169.06;4148357;28;19961;-52
2023/07/25 02:15:11;;;;;;;;;;;;;;;21.38;54.36;100174.41;4148936;28;19925;-53
2023/07/25 02:17:13;;;;;;;;;;;;;;;21.37;53.94;100171.88;4149270;28;20021;-53
2023/07/25 02:19:15;;;;;;;;;;;;;;;21.37;54.71;100172.75;4148370;28;20016;-54
2023/07/25 02:21:16;;;;;;;;;;;;;;;21.36;54.95;100171.03;4148146;28;19975;-53
2023/07/25 02:23:18;;;;;;;;;;;;;;;21.35;54.70;100169.34;4148196;28;19921;-53
2023/07/25 02:25:19;;;;;;;;;;;;;;;21.34;54.50;100164.16;4148798;28;19965;-52
2023/07/25 02:27:21;;;;;;;;;;;;;;;21.34;55.05;100164.97;4148804;28;20016;-52
2023/07/25 02:29:23;;;;;;;;;;;;;;;21.35;54.55;100160.47;4148782;28;19929;-53
2023/07/25 02:31:24;;;;;;;;;;;;;;;21.34;54.61;100150.78;4148853;28;20423;-52
2023/07/25 02:33:26;;;;;;;;;;;;;;;21.34;54.47;100159.63;4147691;28;19921;-51
2023/07/25 02:35:27;;;;;;;;;;;;;;;21.34;54.10;100158.78;4148723;28;19987;-51
2023/07/25 02:37:29;;;;;;;;;;;;;;;21.34;54.52;100156.13;4148485;28;19922;-52
2023/07/25 02:39:30;;;;;;;;;;;;;;;21.34;54.73;100158.78;4148618;28;19921;-54
2023/07/25 02:41:37;;;;;;;;;;;;;;;21.34;54.82;100145.41;4148550;28;20440;-50
2023/07/25 02:43:38;;;;;;;;;;;;;;;21.33;54.10;100151.75;4147846;28;19921;-53
2023/07/25 02:45:40;;;;;;;;;;;;;;;21.33;54.15;100151.75;4148493;28;20404;-52
2023/07/25 02:47:41;;;;;;;;;;;;;;;21.32;54.05;100150.06;4148382;28;19932;-50
2023/07/25 02:49:43;;;;;;;;;;;;;;;21.31;53.89;100143.88;4160841;28;19996;-51
2023/07/25 02:51:44;;;;;;;;;;;;;;;21.32;53.96;100150.06;4164849;28;20435;-53
2023/07/25 02:53:51;;;;;;;;;;;;;;;21.31;53.72;100143.88;4164204;28;20353;-52
2023/07/25 02:55:53;;;;;;;;;;;;;;;21.32;54.70;100150.06;4164570;28;19921;-53
2023/07/25 02:57:55;;;;;;;;;;;;;;;21.31;53.81;100151.03;4164474;28;19921;-53
2023/07/25 02:59:57;;;;;;;;;;;;;;;21.31;54.02;100140.34;4164177;28;19928;-52
2023/07/25 03:02:00;;;;;;;;;;;;;;;21.31;54.02;100141.19;4161963;28;19952;-52
2023/07/25 03:04:02;;;;;;;;;;;;;;;21.31;54.00;100140.34;4129836;28;20461;-53
2023/07/25 03:06:03;;;;;;;;;;;;;;;21.30;54.67;100142.19;4148439;28;20028;-52
2023/07/25 03:08:05;;;;;;;;;;;;;;;21.29;54.07;100142.28;4148037;28;20015;-53
2023/07/25 03:10:07;;;;;;;;;;;;;;;21.28;54.12;100138.78;4148236;28;19932;-54
2023/07/25 03:12:09;;;;;;;;;;;;;;;21.29;54.10;100147.66;4148105;28;19928;-52
2023/07/25 03:14:10;;;;;;;;;;;;;;;21.29;54.39;100143.16;4147507;28;19921;-54
2023/07/25 03:16:12;;;;;;;;;;;;;;;21.29;53.81;100150.31;4147811;28;20300;-53
2023/07/25 03:18:18;;;;;;;;;;;;;;;21.29;54.25;100151.19;4131051;28;19922;-54
2023/07/25 03:20:20;;;;;;;;;;;;;;;21.28;54.02;100157.50;4147962;28;20305;-53
2023/07/25 03:22:21;;;;;;;;;;;;;;;21.27;53.83;100149.63;4147618;28;19960;-54
2023/07/25 03:24:23;;;;;;;;;;;;;;;21.27;53.88;100149.63;4147603;28;19932;-52
2023/07/25 03:26:24;;;;;;;;;;;;;;;21.26;54.07;100143.41;4148045;28;20024;-52
2023/07/25 03:28:26;;;;;;;;;;;;;;;21.26;54.15;100143.41;4147823;28;19987;-52
2023/07/25 03:30:33;;;;;;;;;;;;;;;21.25;54.32;100148.91;4131216;28;20306;-52
2023/07/25 03:32:34;;;;;;;;;;;;;;;21.26;54.05;100150.59;4147093;28;19975;-53
2023/07/25 03:34:36;;;;;;;;;;;;;;;21.25;53.89;100146.25;4147585;28;19921;-51
2023/07/25 03:36:37;;;;;;;;;;;;;;;21.23;54.29;100152.56;4147671;28;20029;-53
2023/07/25 03:38:39;;;;;;;;;;;;;;;21.24;54.03;100153.44;4147711;28;19921;-53
2023/07/25 03:40:41;;;;;;;;;;;;;;;21.25;53.91;100152.41;4147969;28;19925;-53
2023/07/25 03:42:42;;;;;;;;;;;;;;;21.25;54.30;100155.09;4147259;28;19957;-54
2023/07/25 03:44:44;;;;;;;;;;;;;;;21.24;53.91;100164.13;4147932;28;19956;-50
2023/07/25 03:46:46;;;;;;;;;;;;;;;21.25;53.93;100165.78;4147407;28;19932;-51
2023/07/25 03:48:47;;;;;;;;;;;;;;;21.25;54.47;100160.44;4135218;28;19922;-53
2023/07/25 03:50:49;;;;;;;;;;;;;;;21.24;53.59;100156.09;4146768;28;19921;-50
2023/07/25 03:52:51;;;;;;;;;;;;;;;21.22;53.84;100153.53;4163550;28;19925;-53
2023/07/25 03:54:52;;;;;;;;;;;;;;;21.23;54.19;100165.09;4163862;28;19990;-53
2023/07/25 03:56:54;;;;;;;;;;;;;;;21.23;53.71;100170.47;4146420;28;19921;-51
2023/07/25 03:58:56;;;;;;;;;;;;;;;21.22;54.17;100169.59;4163884;28;20376;-50
2023/07/25 04:00:57;;;;;;;;;;;;;;;21.21;53.74;100175.09;4163553;28;19921;-52
2023/07/25 04:02:59;;;;;;;;;;;;;;;21.21;53.81;100178.59;4152835;28;19921;-50
2023/07/25 04:05:15;;;;;;;;;;;;;;;21.21;53.53;100180.44;4147431;28;20040;-53
2023/07/25 04:07:17;;;;;;;;;;;;;;;21.21;53.92;100185.78;4147671;28;19925;-52
2023/07/25 04:09:18;;;;;;;;;;;;;;;21.20;54.07;100192.09;4147695;28;19928;-53
2023/07/25 04:11:21;;;;;;;;;;;;;;;21.20;53.69;100194.78;4147609;28;19925;-53
2023/07/25 04:13:23;;;;;;;;;;;;;;;21.20;53.50;100192.97;4146888;28;20443;-53
2023/07/25 04:15:24;;;;;;;;;;;;;;;21.19;53.73;100190.41;4147292;28;19931;-52
2023/07/25 04:17:26;;;;;;;;;;;;;;;21.20;53.85;100197.47;4147445;28;19925;-52
2023/07/25 04:19:28;;;;;;;;;;;;;;;21.19;53.44;100207.31;4147885;28;19927;-53
2023/07/25 04:21:31;;;;;;;;;;;;;;;21.19;53.86;100215.34;4150871;28;19961;-53
2023/07/25 04:23:33;;;;;;;;;;;;;;;21.20;53.99;100208.16;4132689;28;19961;-53
2023/07/25 04:25:35;;;;;;;;;;;;;;;21.19;54.22;100212.66;4150712;28;20664;-53
2023/07/25 04:27:37;;;;;;;;;;;;;;;21.18;54.10;100204.75;4150716;28;19921;-51
2023/07/25 04:29:38;;;;;;;;;;;;;;;21.18;54.23;100213.66;4150243;28;19926;-52
2023/07/25 04:31:40;;;;;;;;;;;;;;;21.17;54.14;100214.63;4150505;28;20016;-50
2023/07/25 04:33:42;;;;;;;;;;;;;;;21.18;54.40;100218.13;4149687;28;19932;-51
2023/07/25 04:35:45;;;;;;;;;;;;;;;21.17;54.46;100217.31;4150606;28;20016;-52
2023/07/25 04:37:47;;;;;;;;;;;;;;;21.17;54.03;100209.28;4150249;28;19936;-52
2023/07/25 04:39:48;;;;;;;;;;;;;;;21.16;54.24;100204.91;4150580;28;19927;-53
2023/07/25 04:41:50;;;;;;;;;;;;;;;21.15;54.67;100202.38;4150476;28;19921;-52
2023/07/25 04:43:51;;;;;;;;;;;;;;;21.15;54.17;100197.03;4149410;28;19928;-53
2023/07/25 04:45:53;;;;;;;;;;;;;;;21.15;54.50;100197.03;4150427;28;19928;-52
2023/07/25 04:47:55;;;;;;;;;;;;;;;21.14;54.39;100201.53;4150091;28;19928;-52
2023/07/25 04:49:57;;;;;;;;;;;;;;;21.14;54.77;100200.69;4118063;28;19922;-51
2023/07/25 04:51:58;;;;;;;;;;;;;;;21.14;53.96;100198.88;4132945;28;20320;-53
2023/07/25 04:54:00;;;;;;;;;;;;;;;21.14;54.13;100203.34;4133396;28;19921;-53
2023/07/25 04:56:01;;;;;;;;;;;;;;;21.13;53.99;100205.19;4134143;28;20401;-53
2023/07/25 04:58:03;;;;;;;;;;;;;;;21.14;55.15;100204.22;4133917;28;19922;-52
2023/07/25 05:00:05;;;;;;;;;;;;;;;21.14;54.32;100214.06;4133255;28;19922;-51
2023/07/25 05:02:07;;;;;;;;;;;;;;;21.13;54.57;100221.25;4137336;28;19921;-51
2023/07/25 05:04:08;;;;;;;;;;;;;;;21.13;54.44;100223.06;4149304;28;20008;-53
2023/07/25 05:06:11;;;;;;;;;;;;;;;21.13;54.18;100228.41;4150022;28;20348;-53
2023/07/25 05:08:13;;;;;;;;;;;;;;;21.04;54.83;100214.84;4150158;28;19925;-52
2023/07/25 05:10:17;;;;;;;;;;;;;;;21.12;54.66;100227.56;4150112;28;19979;-54
2023/07/25 05:12:19;;;;;;;;;;;;;;;21.12;54.32;100226.69;4149807;28;19944;-53
2023/07/25 05:14:20;;;;;;;;;;;;;;;21.12;54.55;100230.25;4148686;28;19953;-53
2023/07/25 05:16:22;;;;;;;;;;;;;;;21.12;53.85;100226.69;4149694;28;19929;-55
2023/07/25 05:18:24;;;;;;;;;;;;;;;21.12;54.32;100234.72;4149910;28;19976;-53
2023/07/25 05:20:26;;;;;;;;;;;;;;;21.11;54.06;100230.38;4149823;28;19971;-53
2023/07/25 05:22:27;;;;;;;;;;;;;;;21.11;54.51;100227.72;4149295;28;19922;-54
2023/07/25 05:24:29;;;;;;;;;;;;;;;21.10;54.40;100226.84;4149126;28;20281;-54
2023/07/25 05:26:31;;;;;;;;;;;;;;;21.09;54.53;100225.16;4149892;28;20081;-55
2023/07/25 05:28:32;;;;;;;;;;;;;;;21.10;54.31;100234.03;4149428;28;19925;-54
2023/07/25 05:30:34;;;;;;;;;;;;;;;21.09;54.18;100233.16;4149078;28;20123;-54
2023/07/25 05:32:36;;;;;;;;;;;;;;;21.09;54.22;100233.16;4148795;28;20016;-54
2023/07/25 05:34:38;;;;;;;;;;;;;;;21.09;54.27;100241.19;4148964;28;20363;-54
2023/07/25 05:36:40;;;;;;;;;;;;;;;21.09;54.16;100240.34;4149485;28;19928;-53
2023/07/25 05:38:41;;;;;;;;;;;;;;;21.08;54.13;100244.00;4149186;28;19992;-54
2023/07/25 05:40:43;;;;;;;;;;;;;;;21.08;54.07;100236.81;4149540;28;19921;-54
2023/07/25 05:42:45;;;;;;;;;;;;;;;21.07;54.15;100243.19;4148967;28;19928;-54
2023/07/25 05:44:47;;;;;;;;;;;;;;;21.06;54.10;100247.66;4149286;28;19965;-53
2023/07/25 05:46:48;;;;;;;;;;;;;;;21.08;54.04;100244.00;4149413;28;20016;-54
2023/07/25 05:48:50;;;;;;;;;;;;;;;21.07;54.02;100248.53;4143275;28;19970;-55
2023/07/25 05:50:56;;;;;;;;;;;;;;;21.06;54.20;100252.16;4133277;28;19930;-55
2023/07/25 05:53:03;;;;;;;;;;;;;;;21.08;54.30;100246.69;4132424;28;19928;-53
2023/07/25 05:55:05;;;;;;;;;;;;;;;21.07;54.80;100261.88;4133027;28;20366;-54
2023/07/25 05:57:07;;;;;;;;;;;;;;;21.06;54.21;100257.53;4132727;28;20369;-53
2023/07/25 05:59:09;;;;;;;;;;;;;;;21.06;54.25;100265.53;4132760;28;20287;-53
2023/07/25 06:01:11;;;;;;;;;;;;;;;21.05;54.14;100264.69;4133188;28;19921;-54
2023/07/25 06:03:13;;;;;;;;;;;;;;;21.05;54.57;100264.69;4144419;28;19921;-53
2023/07/25 06:05:15;;;;;;;;;;;;;;;21.06;54.18;100268.22;4148872;28;19921;-51
2023/07/25 06:07:17;;;;;;;;;;;;;;;21.04;54.50;100268.31;4149195;28;19929;-55
2023/07/25 06:09:18;;;;;;;;;;;;;;;21.04;54.05;100276.34;4149057;28;20360;-53
2023/07/25 06:11:22;;;;;;;;;;;;;;;21.03;54.07;100266.66;4148570;28;19957;-54
2023/07/25 06:13:24;;;;;;;;;;;;;;;21.04;53.84;100275.50;4115314;28;20001;-52
2023/07/25 06:15:28;;;;;;;;;;;;;;;21.03;53.81;100282.69;4148845;28;19921;-53
2023/07/25 06:17:29;;;;;;;;;;;;;;;21.02;54.33;100278.31;4148845;28;20296;-53
2023/07/25 06:19:31;;;;;;;;;;;;;;;21.02;54.10;100288.16;4149000;28;20166;-54
2023/07/25 06:21:32;;;;;;;;;;;;;;;21.01;54.15;100286.47;4149064;28;19925;-54
2023/07/25 06:23:34;;;;;;;;;;;;;;;21.01;53.86;100291.81;4148050;28;20308;-56
2023/07/25 06:25:36;;;;;;;;;;;;;;;20.99;53.51;100291.94;4148375;28;19921;-54
2023/07/25 06:27:37;;;;;;;;;;;;;;;20.99;54.21;100299.97;4148787;28;19932;-54
2023/07/25 06:29:39;;;;;;;;;;;;;;;21.00;54.21;100306.19;4148734;28;19967;-53
2023/07/25 06:31:41;;;;;;;;;;;;;;;20.98;53.90;100308.97;4148653;28;20080;-54
2023/07/25 06:33:42;;;;;;;;;;;;;;;20.98;53.91;100306.28;4148007;28;19931;-53
2023/07/25 06:35:46;;;;;;;;;;;;;;;20.98;54.00;100305.44;4148631;28;19946;-55
2023/07/25 06:37:48;;;;;;;;;;;;;;;20.97;54.05;100304.59;4148626;28;19921;-54
2023/07/25 06:39:52;;;;;;;;;;;;;;;20.97;53.62;100314.44;4148312;28;19921;-55
2023/07/25 06:41:55;;;;;;;;;;;;;;;20.96;53.89;100320.78;4148560;28;19922;-56
2023/07/25 06:43:56;;;;;;;;;;;;;;;20.95;53.65;100319.06;4147558;28;19921;-54
2023/07/25 06:45:58;;;;;;;;;;;;;;;20.94;53.93;100331.59;4148412;28;19948;-53
2023/07/25 06:47:59;;;;;;;;;;;;;;;20.93;54.32;100329.91;4148386;28;20015;-56
2023/07/25 06:50:01;;;;;;;;;;;;;;;20.93;53.80;100332.56;4133254;28;19928;-55
2023/07/25 06:52:03;;;;;;;;;;;;;;;20.94;54.16;100342.28;4132380;28;19926;-52
2023/07/25 06:54:05;;;;;;;;;;;;;;;20.93;54.08;100332.56;4131318;28;20301;-52
2023/07/25 06:56:06;;;;;;;;;;;;;;;20.92;53.98;100346.09;4131813;28;19929;-53
2023/07/25 06:58:07;;;;;;;;;;;;;;;20.91;53.99;100347.88;4131966;28;20097;-54
2023/07/25 07:00:10;;;;;;;;;;;;;;;20.90;54.13;100344.38;4131694;28;20016;-55
2023/07/25 07:02:12;;;;;;;;;;;;;;;20.82;53.81;100346.84;4135783;28;19968;-56
2023/07/25 07:04:14;;;;;;;;;;;;;;;20.90;54.19;100348.91;4147396;28;19961;-55
2023/07/25 07:06:16;;;;;;;;;;;;;;;20.89;53.89;100357.88;4148418;28;19921;-55
2023/07/25 07:08:18;;;;;;;;;;;;;;;20.89;53.94;100360.56;4148130;28;19929;-55
2023/07/25 07:10:19;;;;;;;;;;;;;;;20.87;53.94;100371.38;4147929;28;19931;-54
2023/07/25 07:12:21;;;;;;;;;;;;;;;20.86;53.97;100360.81;4148231;28;19925;-52
2023/07/25 07:14:23;;;;;;;;;;;;;;;20.85;53.66;100373.34;4147332;28;19925;-55
2023/07/25 07:16:29;;;;;;;;;;;;;;;20.85;53.49;100372.47;4146796;28;19957;-54
2023/07/25 07:18:31;;;;;;;;;;;;;;;20.84;53.77;100373.44;4147919;28;20028;-52
2023/07/25 07:20:32;;;;;;;;;;;;;;;20.85;53.99;100385.84;4148011;28;19937;-54
2023/07/25 07:22:34;;;;;;;;;;;;;;;20.83;53.52;100380.63;4148107;28;20017;-55
2023/07/25 07:24:35;;;;;;;;;;;;;;;20.81;53.74;100387.91;4129617;28;20008;-54
2023/07/25 07:26:42;;;;;;;;;;;;;;;20.81;53.80;100395.94;4147966;28;19967;-56
2023/07/25 07:28:45;;;;;;;;;;;;;;;20.81;53.50;100403.13;4147965;28;19922;-55
2023/07/25 07:30:50;;;;;;;;;;;;;;;20.80;53.57;100412.94;4147797;28;19921;-52
2023/07/25 07:32:52;;;;;;;;;;;;;;;20.79;53.60;100403.25;4147975;28;19928;-53
2023/07/25 07:34:53;;;;;;;;;;;;;;;20.79;53.41;100413.09;4147185;28;19925;-54
2023/07/25 07:36:55;;;;;;;;;;;;;;;20.80;53.54;100414.78;4147991;28;19922;-55
2023/07/25 07:38:56;;;;;;;;;;;;;;;20.77;53.54;100421.25;4147885;28;19960;-55
2023/07/25 07:40:58;;;;;;;;;;;;;;;20.78;53.42;100427.41;4147934;28;20449;-55
2023/07/25 07:42:59;;;;;;;;;;;;;;;20.76;53.24;100427.56;4147659;28;19922;-55
2023/07/25 07:45:01;;;;;;;;;;;;;;;20.77;53.36;100439.06;4147069;28;19921;-54
2023/07/25 07:47:03;;;;;;;;;;;;;;;20.76;53.32;100440.09;4147665;28;19925;-55
2023/07/25 07:49:04;;;;;;;;;;;;;;;20.75;53.20;100439.22;4147626;28;19928;-55
2023/07/25 07:51:07;;;;;;;;;;;;;;;20.74;53.13;100440.19;4147857;28;20363;-55
2023/07/25 07:53:08;;;;;;;;;;;;;;;20.73;53.02;100446.53;4147371;28;20032;-53
2023/07/25 07:55:11;;;;;;;;;;;;;;;20.73;52.94;100446.53;4148741;28;19922;-51
2023/07/25 07:57:12;;;;;;;;;;;;;;;20.73;53.06;100454.56;4151140;28;19921;-55
2023/07/25 07:59:14;;;;;;;;;;;;;;;20.72;52.91;100455.53;4150890;28;19941;-53
2023/07/25 08:01:17;;;;;;;;;;;;;;;20.70;53.11;100454.75;4150856;28;20005;-55
2023/07/25 08:03:18;;;;;;;;;;;;;;;20.70;52.89;100460.94;4150534;28;19925;-57
2023/07/25 08:05:20;;;;;;;;;;;;;;;20.70;53.05;100463.59;4150856;28;19928;-53
2023/07/25 08:07:21;;;;;;;;;;;;;;;20.70;53.05;100468.97;4150601;28;19928;-53
2023/07/25 08:09:23;;;;;;;;;;;;;;;20.69;52.61;100467.28;4150949;28;19957;-51
2023/07/25 08:11:24;;;;;;;;;;;;;;;20.68;52.90;100465.59;4150853;28;19976;-53
2023/07/25 08:13:26;;;;;;;;;;;;;;;20.69;52.96;100466.41;4150304;28;19928;-54
2023/07/25 08:15:28;;;;;;;;;;;;;;;20.68;52.67;100462.03;4133068;28;19921;-54
2023/07/25 08:17:29;;;;;;;;;;;;;;;20.67;52.92;100469.22;4150669;28;20020;-54
2023/07/25 08:19:31;;;;;;;;;;;;;;;20.67;52.62;100479.03;4150914;28;19921;-53
2023/07/25 08:21:32;;;;;;;;;;;;;;;20.66;52.84;100488.06;4150416;28;19925;-54
2023/07/25 08:23:37;;;;;;;;;;;;;;;20.65;52.47;100492.53;4150208;28;19921;-56
2023/07/25 08:25:39;;;;;;;;;;;;;;;20.64;52.48;100496.19;4150575;28;19925;-52
2023/07/25 08:27:41;;;;;;;;;;;;;;;20.64;52.55;100498.84;4150452;28;20052;-53
2023/07/25 08:29:43;;;;;;;;;;;;;;;20.63;52.64;100494.47;4150574;28;19925;-54
2023/07/25 08:31:45;;;;;;;;;;;;;;;20.62;52.61;100492.81;4150677;28;19928;-54
2023/07/25 08:33:46;;;;;;;;;;;;;;;20.62;52.08;100502.63;4149755;28;19945;-53
2023/07/25 08:35:50;;;;;;;;;;;;;;;20.63;52.54;100504.34;4150144;28;19921;-53
2023/07/25 08:37:52;;;;;;;;;;;;;;;20.62;52.37;100513.31;4150329;28;19925;-52
2023/07/25 08:39:53;;;;;;;;;;;;;;;20.62;52.22;100519.53;4150771;28;19921;-54
2023/07/25 08:41:57;;;;;;;;;;;;;;;20.61;52.27;100523.16;4150659;28;20008;-55
2023/07/25 08:44:00;;;;;;;;;;;;;;;20.61;52.20;100525.84;4149752;28;19960;-54
2023/07/25 08:46:05;;;;;;;;;;;;;;;20.62;51.86;100524.00;4150465;28;19928;-53
2023/07/25 08:48:10;;;;;;;;;;;;;;;20.62;51.89;100532.03;4150496;28;19921;-53
2023/07/25 08:50:16;;;;;;;;;;;;;;;20.63;51.59;100533.72;4150363;28;19921;-55
2023/07/25 08:52:19;;;;;;;;;;;;;;;20.64;51.99;100532.75;4150363;28;19929;-54
2023/07/25 08:54:21;;;;;;;;;;;;;;;20.65;51.59;100539.81;4149655;28;19921;-55
2023/07/25 08:56:23;;;;;;;;;;;;;;;20.65;51.63;100535.28;4150114;28;19925;-51
2023/07/25 08:58:28;;;;;;;;;;;;;;;20.66;51.82;100541.50;4150007;28;19997;-52
2023/07/25 09:00:30;;;;;;;;;;;;;;;20.68;51.60;100547.56;4150257;28;20381;-53
2023/07/25 09:02:32;;;;;;;;;;;;;;;20.69;51.52;100563.50;4150019;28;19928;-54
2023/07/25 09:04:34;;;;;;;;;;;;;;;20.71;51.27;100553.50;4149352;28;19921;-52
2023/07/25 09:06:36;;;;;;;;;;;;;;;20.72;51.50;100568.59;4149346;28;19921;-52
2023/07/25 09:08:38;;;;;;;;;;;;;;;20.74;51.14;100571.13;4150033;28;19928;-52
2023/07/25 09:10:40;;;;;;;;;;;;;;;20.74;51.20;100572.00;4150065;28;20403;-52
2023/07/25 09:12:42;;;;;;;;;;;;;;;20.74;51.36;100580.03;4150105;28;19921;-52
2023/07/25 09:14:44;;;;;;;;;;;;;;;20.76;51.26;100577.22;4149303;28;20333;-52
2023/07/25 09:16:45;;;;;;;;;;;;;;;20.76;51.08;100577.22;4149872;28;19921;-50
2023/07/25 09:18:47;;;;;;;;;;;;;;;20.77;51.23;100589.63;4149770;28;19937;-52
2023/07/25 09:20:48;;;;;;;;;;;;;;;20.79;51.03;100594.81;4149543;28;20398;-53
2023/07/25 09:22:50;;;;;;;;;;;;;;;20.78;50.92;100593.13;4149899;28;20002;-52
2023/07/25 09:24:51;;;;;;;;;;;;;;;20.79;50.95;100600.16;4149076;28;19959;-54
2023/07/25 09:26:53;;;;;;;;;;;;;;;20.78;51.04;100601.16;4149549;28;19936;-53
2023/07/25 09:28:59;;;;;;;;;;;;;;;20.79;51.19;100609.06;4149929;28;20020;-51
2023/07/25 09:31:04;;;;;;;;;;;;;;;20.79;51.09;100608.19;4149573;28;20393;-53
2023/07/25 09:33:06;;;;;;;;;;;;;;;20.80;50.84;100609.91;4149722;28;20122;-54
2023/07/25 09:35:09;;;;;;;;;;;;;;;20.79;50.91;100609.06;4148691;28;19960;-52
2023/07/25 09:37:11;;;;;;;;;;;;;;;20.80;50.61;100616.06;4149536;28;20339;-53
2023/07/25 09:39:13;;;;;;;;;;;;;;;20.80;50.86;100615.25;4149440;28;19921;-53
2023/07/25 09:41:15;;;;;;;;;;;;;;;20.80;51.07;100629.44;4149717;28;19984;-53
2023/07/25 09:43:26;;;;;;;;;;;;;;;20.80;50.97;100625.94;4149503;28;19932;-54
2023/07/25 09:45:35;;;;;;;;;;;;;;;20.82;51.00;100629.34;4148770;28;20015;-52
2023/07/25 09:47:38;;;;;;;;;;;;;;;20.81;50.94;100631.16;4149238;28;19928;-52
2023/07/25 09:49:46;;;;;;;;;;;;;;;20.81;50.87;100631.16;4136542;28;19922;-52
2023/07/25 09:52:03;;;;;;;;;;;;;;;20.82;50.73;100629.34;4133308;28;19961;-50
2023/07/25 09:54:05;;;;;;;;;;;;;;;20.83;50.85;100637.22;4132437;28;20363;-51
2023/07/25 09:56:08;;;;;;;;;;;;;;;20.85;50.67;100635.28;4132652;28;20329;-54
2023/07/25 09:58:10;;;;;;;;;;;;;;;20.87;50.84;100641.34;4132925;28;19926;-54
2023/07/25 10:00:12;;;;;;;;;;;;;;;20.89;50.98;100646.59;4119466;28;19954;-52
2023/07/25 10:02:15;;;;;;;;;;;;;;;20.89;51.01;100652.78;4120880;28;19937;-54
2023/07/25 10:04:16;;;;;;;;;;;;;;;20.90;51.01;100651.81;4114687;28;20382;-52
2023/07/25 10:06:18;;;;;;;;;;;;;;;20.92;50.80;100656.19;4115735;28;19965;-54
2023/07/25 10:08:21;;;;;;;;;;;;;;;20.92;50.90;100657.00;4133016;28;20409;-53
2023/07/25 10:10:22;;;;;;;;;;;;;;;20.92;50.96;100650.84;4132794;28;20012;-54
2023/07/25 10:12:24;;;;;;;;;;;;;;;20.94;51.73;100651.56;4115614;28;19961;-53
2023/07/25 10:14:25;;;;;;;;;;;;;;;20.93;51.84;100658.72;4132308;28;20337;-53
2023/07/25 10:16:27;;;;;;;;;;;;;;;20.92;51.79;100653.50;4132711;28;19925;-52
2023/07/25 10:18:32;;;;;;;;;;;;;;;20.92;51.64;100661.53;4131609;28;19928;-53
2023/07/25 10:20:34;;;;;;;;;;;;;;;20.93;51.89;100660.56;4132759;28;19925;-52
2023/07/25 10:22:39;;;;;;;;;;;;;;;20.92;51.92;100656.19;4132753;28;19922;-53
2023/07/25 10:24:41;;;;;;;;;;;;;;;20.91;51.91;100657.97;4132039;28;19922;-49
2023/07/25 10:26:53;;;;;;;;;;;;;;;20.92;52.03;100662.38;4132629;28;20423;-53